createdAt,value
2018-01-25T00:01:56.458Z,8.57
2018-01-25T00:04:24.300Z,8.56
2018-01-25T00:06:52.037Z,8.55
2018-01-25T00:09:19.730Z,8.57
2018-01-25T00:11:47.491Z,8.55
2018-01-25T00:14:15.214Z,8.57
2018-01-25T00:16:42.915Z,8.53
2018-01-25T00:19:11.324Z,8.54
2018-01-25T00:21:39.394Z,8.56
2018-01-25T00:24:07.163Z,8.56
2018-01-25T00:26:34.865Z,8.58
2018-01-25T00:29:02.603Z,8.53
2018-01-25T00:31:30.335Z,8.50
2018-01-25T00:33:58.102Z,8.51
2018-01-25T00:36:25.794Z,8.53
2018-01-25T00:38:53.525Z,8.50
2018-01-25T00:41:21.260Z,8.52
2018-01-25T00:43:49.375Z,8.52
2018-01-25T00:46:17.069Z,8.53
2018-01-25T00:48:44.783Z,8.51
2018-01-25T00:51:12.581Z,8.50
2018-01-25T00:53:40.333Z,8.50
2018-01-25T00:56:08.046Z,8.50
2018-01-25T00:58:36.186Z,8.50
2018-01-25T01:01:03.929Z,8.51
2018-01-25T01:03:31.616Z,8.49
2018-01-25T01:05:59.591Z,8.48
2018-01-25T01:08:27.259Z,8.46
2018-01-25T01:10:54.940Z,8.47
2018-01-25T01:13:22.652Z,8.46
2018-01-25T01:15:50.390Z,8.46
2018-01-25T01:18:18.157Z,8.48
2018-01-25T01:20:46.267Z,8.45
2018-01-25T01:23:14.003Z,8.45
2018-01-25T01:25:42.106Z,8.45
2018-01-25T01:28:09.828Z,8.44
2018-01-25T01:30:37.566Z,8.43
2018-01-25T01:33:05.261Z,8.46
2018-01-25T01:35:32.947Z,8.43
2018-01-25T01:38:00.710Z,8.46
2018-01-25T01:40:28.441Z,8.45
2018-01-25T01:42:56.136Z,8.41
2018-01-25T01:45:23.871Z,8.38
2018-01-25T01:47:51.605Z,8.40
2018-01-25T01:50:19.307Z,8.40
2018-01-25T01:52:47.410Z,8.37
2018-01-25T01:55:15.584Z,8.41
2018-01-25T01:57:43.392Z,8.40
2018-01-25T02:00:11.163Z,8.36
2018-01-25T02:02:39.299Z,8.35
2018-01-25T02:05:06.987Z,8.37
2018-01-25T02:07:34.722Z,8.37
2018-01-25T02:10:02.431Z,8.35
2018-01-25T02:12:30.164Z,8.37
2018-01-25T02:14:58.171Z,8.34
2018-01-25T02:17:26.123Z,8.33
2018-01-25T02:19:53.903Z,8.32
2018-01-25T02:22:21.887Z,8.29
2018-01-25T02:24:49.614Z,8.25
2018-01-25T02:27:17.480Z,8.27
2018-01-25T02:29:45.251Z,8.30
2018-01-25T02:32:13.695Z,8.27
2018-01-25T02:34:41.438Z,8.25
2018-01-25T02:37:09.111Z,8.27
2018-01-25T02:39:38.814Z,8.32
2018-01-25T02:42:06.582Z,8.28
2018-01-25T02:44:35.085Z,8.27
2018-01-25T02:47:02.959Z,8.30
2018-01-25T02:49:30.841Z,8.28
2018-01-25T02:51:58.600Z,8.34
2018-01-25T02:54:26.629Z,8.34
2018-01-25T02:56:54.422Z,8.32
2018-01-25T02:59:22.124Z,8.29
2018-01-25T03:01:49.972Z,8.31
2018-01-25T03:04:17.655Z,8.32
2018-01-25T03:06:45.414Z,8.30
2018-01-25T03:09:13.166Z,8.30
2018-01-25T03:11:41.829Z,8.33
2018-01-25T03:14:09.638Z,8.33
2018-01-25T03:16:37.410Z,8.35
2018-01-25T03:19:06.078Z,8.34
2018-01-25T03:21:33.735Z,8.34
2018-01-25T03:24:02.558Z,8.33
2018-01-25T03:26:30.283Z,8.32
2018-01-25T03:28:57.996Z,8.34
2018-01-25T03:31:25.760Z,8.33
2018-01-25T03:33:53.483Z,8.30
2018-01-25T03:36:21.166Z,8.35
2018-01-25T03:38:48.904Z,8.31
2018-01-25T03:41:16.608Z,8.31
2018-01-25T03:43:44.354Z,8.32
2018-01-25T03:46:12.582Z,8.35
2018-01-25T03:48:40.336Z,8.32
2018-01-25T03:51:10.771Z,8.33
2018-01-25T03:53:38.759Z,8.29
2018-01-25T03:56:06.458Z,8.26
2018-01-25T03:58:34.130Z,8.22
2018-01-25T04:01:01.839Z,8.24
2018-01-25T04:03:29.605Z,8.22
2018-01-25T04:05:58.754Z,8.22
2018-01-25T04:08:26.436Z,8.26
2018-01-25T04:10:54.637Z,8.26
2018-01-25T04:13:23.085Z,8.25
2018-01-25T04:15:50.800Z,8.24
2018-01-25T04:18:18.588Z,8.26
2018-01-25T04:20:46.309Z,8.25
2018-01-25T04:23:14.017Z,8.22
2018-01-25T04:25:41.752Z,8.20
2018-01-25T04:28:09.900Z,8.21
2018-01-25T04:30:37.621Z,8.23
2018-01-25T04:33:05.372Z,8.25
2018-01-25T04:35:33.128Z,8.24
2018-01-25T04:38:00.935Z,8.24
2018-01-25T04:40:31.757Z,8.20
2018-01-25T04:42:59.901Z,8.24
2018-01-25T04:45:27.650Z,8.20
2018-01-25T04:47:55.394Z,8.20
2018-01-25T04:50:23.183Z,8.20
2018-01-25T04:52:51.064Z,8.18
2018-01-25T04:55:19.739Z,8.20
2018-01-25T04:57:47.563Z,8.20
2018-01-25T05:00:15.332Z,8.22
2018-01-25T05:02:43.123Z,8.21
2018-01-25T05:05:10.964Z,8.23
2018-01-25T05:07:38.660Z,8.23
2018-01-25T05:10:06.381Z,8.22
2018-01-25T05:12:34.975Z,8.23
2018-01-25T05:15:02.709Z,8.26
2018-01-25T05:17:32.916Z,8.26
2018-01-25T05:20:00.664Z,8.25
2018-01-25T05:22:28.428Z,8.23
2018-01-25T05:24:56.132Z,8.23
2018-01-25T05:27:23.829Z,8.23
2018-01-25T05:29:51.608Z,8.25
2018-01-25T05:32:19.364Z,8.25
2018-01-25T05:34:47.077Z,8.26
2018-01-25T05:37:14.867Z,8.26
2018-01-25T05:39:42.608Z,8.29
2018-01-25T05:42:10.567Z,8.32
2018-01-25T05:44:38.280Z,8.33
2018-01-25T05:47:06.024Z,8.35
2018-01-25T05:49:33.772Z,8.36
2018-01-25T05:52:01.482Z,8.35
2018-01-25T05:54:29.162Z,8.37
2018-01-25T05:56:56.907Z,8.38
2018-01-25T05:59:24.770Z,8.39
2018-01-25T06:01:52.503Z,8.39
2018-01-25T06:04:20.258Z,8.36
2018-01-25T06:06:48.058Z,8.36
2018-01-25T06:09:15.746Z,8.37
2018-01-25T06:11:43.449Z,8.40
2018-01-25T06:14:11.568Z,8.39
2018-01-25T06:16:39.257Z,8.37
2018-01-25T06:19:07.032Z,8.38
2018-01-25T06:21:35.481Z,8.38
2018-01-25T06:24:03.160Z,8.39
2018-01-25T06:26:30.920Z,8.39
2018-01-25T06:28:58.626Z,8.41
2018-01-25T06:31:26.327Z,8.41
2018-01-25T06:33:54.052Z,8.40
2018-01-25T06:36:21.780Z,8.41
2018-01-25T06:38:49.515Z,8.40
2018-01-25T06:41:17.332Z,8.40
2018-01-25T06:43:45.033Z,8.44
2018-01-25T06:46:12.701Z,8.41
2018-01-25T06:48:40.411Z,8.39
2018-01-25T06:51:08.157Z,8.39
2018-01-25T06:53:35.942Z,8.38
2018-01-25T06:56:04.281Z,8.36
2018-01-25T06:58:32.114Z,8.38
2018-01-25T07:00:59.885Z,8.40
2018-01-25T07:03:27.577Z,8.38
2018-01-25T07:05:55.258Z,8.38
2018-01-25T07:08:22.920Z,8.39
2018-01-25T07:10:50.687Z,8.40
2018-01-25T07:13:18.362Z,8.40
2018-01-25T07:15:46.084Z,8.41
2018-01-25T07:18:13.826Z,8.40
2018-01-25T07:20:41.520Z,8.39
2018-01-25T07:23:09.251Z,8.39
2018-01-25T07:25:36.954Z,8.37
2018-01-25T07:28:04.604Z,8.40
2018-01-25T07:30:32.767Z,8.38
2018-01-25T07:33:00.441Z,8.38
2018-01-25T07:35:28.313Z,8.35
2018-01-25T07:37:55.988Z,8.33
2018-01-25T07:40:23.620Z,8.31
2018-01-25T07:42:51.424Z,8.27
2018-01-25T07:45:19.082Z,8.25
2018-01-25T07:47:46.746Z,8.25
2018-01-25T07:50:14.464Z,8.23
2018-01-25T07:52:42.175Z,8.21
2018-01-25T07:55:09.899Z,8.20
2018-01-25T07:57:43.218Z,8.17
2018-01-25T08:00:10.919Z,8.16
2018-01-25T08:02:38.674Z,8.15
2018-01-25T08:05:06.345Z,8.10
2018-01-25T08:07:34.087Z,8.07
2018-01-25T08:10:01.750Z,8.08
2018-01-25T08:12:30.302Z,8.09
2018-01-25T08:14:57.994Z,8.09
2018-01-25T08:17:25.629Z,8.11
2018-01-25T08:19:53.700Z,8.14
2018-01-25T08:22:21.384Z,8.16
2018-01-25T08:24:49.054Z,8.20
2018-01-25T08:27:16.813Z,8.18
2018-01-25T08:29:44.578Z,8.23
2018-01-25T08:32:12.291Z,8.22
2018-01-25T08:34:39.924Z,8.25
2018-01-25T08:37:07.594Z,8.28
2018-01-25T08:39:35.315Z,8.28
2018-01-25T08:42:03.172Z,8.28
2018-01-25T08:44:30.852Z,8.31
2018-01-25T08:46:58.541Z,8.34
2018-01-25T08:49:26.198Z,8.32
2018-01-25T08:51:53.926Z,8.33
2018-01-25T08:54:21.605Z,8.37
2018-01-25T08:56:49.284Z,8.37
2018-01-25T08:59:16.970Z,8.35
2018-01-25T09:01:44.623Z,8.33
2018-01-25T09:04:12.305Z,8.35
2018-01-25T09:06:39.946Z,8.39
2018-01-25T09:09:07.595Z,8.39
2018-01-25T09:11:35.635Z,8.40
2018-01-25T09:14:03.308Z,8.44
2018-01-25T09:16:30.995Z,8.46
2018-01-25T09:18:59.037Z,8.48
2018-01-25T09:21:27.206Z,8.48
2018-01-25T09:23:54.859Z,8.50
2018-01-25T09:26:22.579Z,8.50
2018-01-25T09:28:50.619Z,8.52
2018-01-25T09:31:18.303Z,8.52
2018-01-25T09:33:46.051Z,8.53
2018-01-25T09:36:13.739Z,8.56
2018-01-25T09:38:41.404Z,8.58
2018-01-25T09:41:09.539Z,8.60
2018-01-25T09:43:37.716Z,8.64
2018-01-25T09:46:05.712Z,8.63
2018-01-25T09:48:33.367Z,8.65
2018-01-25T09:51:01.011Z,8.69
2018-01-25T09:53:28.664Z,8.72
2018-01-25T09:55:56.314Z,8.71
2018-01-25T09:58:24.235Z,8.75
2018-01-25T10:00:52.354Z,8.80
2018-01-25T10:03:20.444Z,8.85
2018-01-25T10:05:48.116Z,8.86
2018-01-25T10:08:15.772Z,8.87
2018-01-25T10:10:43.501Z,8.89
2018-01-25T10:13:11.140Z,8.91
2018-01-25T10:15:38.762Z,8.92
2018-01-25T10:18:06.434Z,8.91
2018-01-25T10:20:34.090Z,8.90
2018-01-25T10:23:02.145Z,8.92
2018-01-25T10:25:30.207Z,8.95
2018-01-25T10:27:57.876Z,8.97
2018-01-25T10:30:26.148Z,9.02
2018-01-25T10:32:53.803Z,9.02
2018-01-25T10:35:21.427Z,9.06
2018-01-25T10:37:49.115Z,9.10
2018-01-25T10:40:16.802Z,9.12
2018-01-25T10:42:44.490Z,9.18
2018-01-25T10:45:12.175Z,9.17
2018-01-25T10:47:39.812Z,9.20
2018-01-25T10:50:07.675Z,9.19
2018-01-25T10:52:35.312Z,9.21
2018-01-25T10:55:02.967Z,9.22
2018-01-25T10:57:30.651Z,9.25
2018-01-25T10:59:58.598Z,9.28
2018-01-25T11:02:26.312Z,9.30
2018-01-25T11:04:53.986Z,9.29
2018-01-25T11:07:21.922Z,9.30
2018-01-25T11:09:49.575Z,9.33
2018-01-25T11:12:17.289Z,9.37
2018-01-25T11:14:45.006Z,9.39
2018-01-25T11:17:12.694Z,9.42
2018-01-25T11:19:40.395Z,9.42
2018-01-25T11:22:08.170Z,9.42
2018-01-25T11:24:36.365Z,9.43
2018-01-25T11:27:04.435Z,9.47
2018-01-25T11:29:32.113Z,9.47
2018-01-25T11:31:59.806Z,9.51
2018-01-25T11:34:27.456Z,9.54
2018-01-25T11:36:55.173Z,9.58
2018-01-25T11:39:22.852Z,9.61
2018-01-25T11:41:50.509Z,9.65
2018-01-25T11:44:18.175Z,9.67
2018-01-25T11:46:45.844Z,9.72
2018-01-25T11:49:13.844Z,9.74
2018-01-25T11:51:41.540Z,9.76
2018-01-25T11:54:09.214Z,9.76
2018-01-25T11:56:36.925Z,9.77
2018-01-25T11:59:04.563Z,9.77
2018-01-25T12:01:32.317Z,9.76
2018-01-25T12:04:00.041Z,9.76
2018-01-25T12:06:27.711Z,9.77
2018-01-25T12:08:55.428Z,9.79
2018-01-25T12:11:23.094Z,9.77
2018-01-25T12:13:50.730Z,9.77
2018-01-25T12:16:18.451Z,9.77
2018-01-25T12:18:46.587Z,9.79
2018-01-25T12:21:14.262Z,9.79
2018-01-25T12:23:41.925Z,9.82
2018-01-25T12:26:09.526Z,9.80
2018-01-25T12:28:37.236Z,9.83
2018-01-25T12:31:04.839Z,9.84
2018-01-25T12:33:32.485Z,9.83
2018-01-25T12:36:00.509Z,9.88
2018-01-25T12:38:28.166Z,9.85
2018-01-25T12:40:55.843Z,9.87
2018-01-25T12:43:23.545Z,9.89
2018-01-25T12:45:51.255Z,9.91
2018-01-25T12:48:18.927Z,9.87
2018-01-25T12:50:46.599Z,9.89
2018-01-25T12:53:14.678Z,9.92
2018-01-25T12:55:42.410Z,9.95
2018-01-25T12:58:10.027Z,9.98
2018-01-25T13:00:37.684Z,9.98
2018-01-25T13:03:05.391Z,10.00
2018-01-25T13:05:33.076Z,10.00
2018-01-25T13:08:00.748Z,10.01
2018-01-25T13:10:28.412Z,10.04
2018-01-25T13:12:56.057Z,10.06
2018-01-25T13:15:23.772Z,10.04
2018-01-25T13:17:51.474Z,10.06
2018-01-25T13:20:19.155Z,10.02
2018-01-25T13:22:46.778Z,10.01
2018-01-25T13:25:14.461Z,10.02
2018-01-25T13:27:42.149Z,10.03
2018-01-25T13:30:09.805Z,10.00
2018-01-25T13:32:37.481Z,10.02
2018-01-25T13:35:05.435Z,9.99
2018-01-25T13:37:33.532Z,9.97
2018-01-25T13:40:01.291Z,9.96
2018-01-25T13:42:28.950Z,9.96
2018-01-25T13:44:56.685Z,9.95
2018-01-25T13:47:24.774Z,9.96
2018-01-25T13:49:52.463Z,9.99
2018-01-25T13:55:21.163Z,10.00
2018-01-25T13:57:48.822Z,10.01
2018-01-25T14:00:16.487Z,10.00
2018-01-25T14:02:44.158Z,10.02
2018-01-25T14:05:11.827Z,10.00
2018-01-25T14:07:39.544Z,10.01
2018-01-25T14:10:07.527Z,9.99
2018-01-25T14:12:35.192Z,9.97
2018-01-25T14:15:02.844Z,9.93
2018-01-25T14:17:30.823Z,9.93
2018-01-25T14:19:58.497Z,9.89
2018-01-25T14:22:26.185Z,9.91
2018-01-25T14:24:53.885Z,9.88
2018-01-25T14:27:21.610Z,9.87
2018-01-25T14:29:49.291Z,9.86
2018-01-25T14:32:17.198Z,9.83
2018-01-25T14:34:44.888Z,9.83
2018-01-25T14:37:12.886Z,9.83
2018-01-25T14:39:40.594Z,9.82
2018-01-25T14:42:08.240Z,9.80
2018-01-25T14:44:35.874Z,9.78
2018-01-25T14:47:03.597Z,9.75
2018-01-25T14:49:31.266Z,9.74
2018-01-25T14:51:58.922Z,9.74
2018-01-25T14:54:26.576Z,9.73
2018-01-25T14:56:54.185Z,9.71
2018-01-25T14:59:21.840Z,9.70
2018-01-25T15:01:49.500Z,9.72
2018-01-25T15:04:17.525Z,9.70
2018-01-25T15:06:45.715Z,9.66
2018-01-25T15:09:13.405Z,9.63
2018-01-25T15:11:41.085Z,9.62
2018-01-25T15:14:08.740Z,9.59
2018-01-25T15:16:36.409Z,9.55
2018-01-25T15:19:04.122Z,9.54
2018-01-25T15:21:31.842Z,9.54
2018-01-25T15:23:59.996Z,9.51
2018-01-25T15:26:28.040Z,9.48
2018-01-25T15:28:55.672Z,9.45
2018-01-25T15:31:23.760Z,9.43
2018-01-25T15:33:51.834Z,9.41
2018-01-25T15:36:19.982Z,9.40
2018-01-25T15:38:48.814Z,9.37
2018-01-25T15:41:19.259Z,9.33
2018-01-25T15:43:47.004Z,9.29
2018-01-25T15:46:14.673Z,9.27
2018-01-25T15:48:42.528Z,9.26
2018-01-25T15:51:10.200Z,9.22
2018-01-25T15:53:38.554Z,9.20
2018-01-25T15:56:06.568Z,9.17
2018-01-25T15:58:34.489Z,9.17
2018-01-25T16:01:05.037Z,9.17
2018-01-25T16:03:33.814Z,9.13
2018-01-25T16:06:01.463Z,9.10
2018-01-25T16:08:29.426Z,9.08
2018-01-25T16:10:57.045Z,9.06
2018-01-25T16:13:24.669Z,9.05
2018-01-25T16:15:52.348Z,9.05
2018-01-25T16:18:19.998Z,9.03
2018-01-25T16:20:47.691Z,9.02
2018-01-25T16:23:15.382Z,9.02
2018-01-25T16:25:43.035Z,8.98
2018-01-25T16:28:10.840Z,8.93
2018-01-25T16:30:38.424Z,8.88
2018-01-25T16:33:06.442Z,8.84
2018-01-25T16:35:34.391Z,8.81
2018-01-25T16:38:02.070Z,8.79
2018-01-25T16:40:29.876Z,8.77
2018-01-25T16:42:58.184Z,8.77
2018-01-25T16:45:26.038Z,8.75
2018-01-25T16:47:54.543Z,8.73
2018-01-25T16:50:22.242Z,8.73
2018-01-25T16:52:50.695Z,8.70
2018-01-25T16:55:18.348Z,8.69
2018-01-25T16:57:46.006Z,8.64
2018-01-25T17:00:13.631Z,8.62
2018-01-25T17:02:41.299Z,8.61
2018-01-25T17:05:08.935Z,8.61
2018-01-25T17:07:36.545Z,8.58
2018-01-25T17:10:04.240Z,8.57
2018-01-25T17:12:31.974Z,8.54
2018-01-25T17:14:59.658Z,8.48
2018-01-25T17:17:27.316Z,8.47
2018-01-25T17:19:54.926Z,8.47
2018-01-25T17:22:22.585Z,8.44
2018-01-25T17:24:50.254Z,8.41
2018-01-25T17:27:17.921Z,8.43
2018-01-25T17:29:45.577Z,8.44
2018-01-25T17:32:13.198Z,8.42
2018-01-25T17:34:40.857Z,8.39
2018-01-25T17:37:08.524Z,8.38
2018-01-25T17:39:36.162Z,8.39
2018-01-25T17:42:04.097Z,8.39
2018-01-25T17:44:32.749Z,8.40
2018-01-25T17:47:00.755Z,8.40
2018-01-25T17:49:29.625Z,8.40
2018-01-25T17:51:57.282Z,8.40
2018-01-25T17:54:25.285Z,8.40
2018-01-25T17:56:53.352Z,8.41
2018-01-25T17:59:21.044Z,8.41
2018-01-25T18:01:48.773Z,8.41
2018-01-25T18:04:16.751Z,8.43
2018-01-25T18:06:44.409Z,8.43
2018-01-25T18:09:12.485Z,8.44
2018-01-25T18:11:40.124Z,8.41
2018-01-25T18:14:07.751Z,8.40
2018-01-25T18:16:36.516Z,8.40
2018-01-25T18:19:04.220Z,8.40
2018-01-25T18:21:31.865Z,8.42
2018-01-25T18:23:59.497Z,8.40
2018-01-25T18:26:27.184Z,8.39
2018-01-25T18:28:56.571Z,8.38
2018-01-25T18:31:24.302Z,8.38
2018-01-25T18:33:52.107Z,8.38
2018-01-25T18:36:19.873Z,8.37
2018-01-25T18:38:47.660Z,8.37
2018-01-25T18:41:18.961Z,8.35
2018-01-25T18:43:49.303Z,8.33
2018-01-25T18:46:17.001Z,8.33
2018-01-25T18:48:44.754Z,8.33
2018-01-25T18:51:15.192Z,8.33
2018-01-25T18:53:42.964Z,8.31
2018-01-25T18:56:10.666Z,8.29
2018-01-25T18:58:38.386Z,8.28
2018-01-25T19:01:06.149Z,8.25
2018-01-25T19:03:34.261Z,8.22
2018-01-25T19:06:02.028Z,8.20
2018-01-25T19:08:29.703Z,8.17
2018-01-25T19:10:57.431Z,8.14
2018-01-25T19:13:25.168Z,8.13
2018-01-25T19:15:52.985Z,8.11
2018-01-25T19:18:20.660Z,8.09
2018-01-25T19:20:48.383Z,8.06
2018-01-25T19:23:16.197Z,8.02
2018-01-25T19:25:43.885Z,8.00
2018-01-25T19:28:11.917Z,7.97
2018-01-25T19:30:39.889Z,7.95
2018-01-25T19:33:07.650Z,7.91
2018-01-25T19:35:41.966Z,7.87
2018-01-25T19:38:10.252Z,7.85
2018-01-25T19:40:37.955Z,7.83
2018-01-25T19:43:06.873Z,7.83
2018-01-25T19:45:34.873Z,7.83
2018-01-25T19:48:02.554Z,7.81
2018-01-25T19:50:30.272Z,7.80
2018-01-25T19:52:58.003Z,7.80
2018-01-25T19:55:25.755Z,7.80
2018-01-25T19:57:53.524Z,7.80
2018-01-25T20:00:21.258Z,7.78
2018-01-25T20:02:49.058Z,7.76
2018-01-25T20:05:17.851Z,7.75
2018-01-25T20:07:45.660Z,7.75
2018-01-25T20:10:13.860Z,7.73
2018-01-25T20:12:41.516Z,7.71
2018-01-25T20:15:09.219Z,7.70
2018-01-25T20:17:37.248Z,7.69
2018-01-25T20:20:04.951Z,7.67
2018-01-25T20:22:32.666Z,7.66
2018-01-25T20:25:00.399Z,7.67
2018-01-25T20:27:28.122Z,7.65
2018-01-25T20:29:55.811Z,7.64
2018-01-25T20:32:23.562Z,7.63
2018-01-25T20:34:51.595Z,7.63
2018-01-25T20:37:19.424Z,7.63
2018-01-25T20:39:47.124Z,7.63
2018-01-25T20:42:15.220Z,7.64
2018-01-25T20:44:42.970Z,7.64
2018-01-25T20:47:10.642Z,7.63
2018-01-25T20:49:38.402Z,7.61
2018-01-25T20:52:06.072Z,7.60
2018-01-25T20:54:34.049Z,7.60
2018-01-25T20:57:01.790Z,7.60
2018-01-25T20:59:29.526Z,7.61
2018-01-25T21:01:57.593Z,7.62
2018-01-25T21:04:25.280Z,7.60
2018-01-25T21:06:53.259Z,7.59
2018-01-25T21:09:20.974Z,7.59
2018-01-25T21:11:48.657Z,7.57
2018-01-25T21:14:16.358Z,7.58
2018-01-25T21:16:43.998Z,7.57
2018-01-25T21:19:11.921Z,7.56
2018-01-25T21:21:39.543Z,7.54
2018-01-25T21:24:07.182Z,7.53
2018-01-25T21:26:34.896Z,7.54
2018-01-25T21:29:02.587Z,7.52
2018-01-25T21:31:30.947Z,7.52
2018-01-25T21:33:58.659Z,7.52
2018-01-25T21:36:26.381Z,7.49
2018-01-25T21:38:54.117Z,7.48
2018-01-25T21:41:21.828Z,7.47
2018-01-25T21:43:49.612Z,7.47
2018-01-25T21:46:17.322Z,7.47
2018-01-25T21:48:45.073Z,7.47
2018-01-25T21:51:13.330Z,7.47
2018-01-25T21:53:41.053Z,7.46
2018-01-25T21:56:08.771Z,7.44
2018-01-25T21:58:36.833Z,7.41
2018-01-25T22:01:04.589Z,7.41
2018-01-25T22:03:32.334Z,7.43
2018-01-25T22:06:00.289Z,7.43
2018-01-25T22:08:27.974Z,7.45
2018-01-25T22:10:55.668Z,7.48
2018-01-25T22:13:25.901Z,7.49
2018-01-25T22:15:54.519Z,7.49
2018-01-25T22:18:22.292Z,7.49
2018-01-25T22:20:50.057Z,7.48
2018-01-25T22:23:17.865Z,7.46
2018-01-25T22:25:45.600Z,7.44
2018-01-25T22:28:13.301Z,7.42
2018-01-25T22:30:41.050Z,7.39
2018-01-25T22:33:08.810Z,7.37
2018-01-25T22:35:36.565Z,7.36
2018-01-25T22:38:04.425Z,7.34
2018-01-25T22:40:32.142Z,7.31
2018-01-25T22:42:59.813Z,7.30
2018-01-25T22:45:27.542Z,7.30
2018-01-25T22:47:55.300Z,7.30
2018-01-25T22:50:22.977Z,7.31
2018-01-25T22:52:51.022Z,7.31
2018-01-25T22:55:18.676Z,7.29
2018-01-25T22:57:46.394Z,7.29
2018-01-25T23:00:25.846Z,7.30
2018-01-25T23:02:53.963Z,7.32
2018-01-25T23:05:21.945Z,7.32
2018-01-25T23:07:49.620Z,7.33
2018-01-25T23:10:17.562Z,7.34
2018-01-25T23:12:45.235Z,7.33
2018-01-25T23:15:12.900Z,7.31
2018-01-25T23:17:41.066Z,7.31
2018-01-25T23:20:08.777Z,7.26
2018-01-25T23:22:36.794Z,7.22
2018-01-25T23:25:04.576Z,7.19
2018-01-25T23:27:32.343Z,7.16
2018-01-25T23:30:00.109Z,7.13
2018-01-25T23:32:28.026Z,7.10
2018-01-25T23:34:55.918Z,7.09
2018-01-25T23:37:24.369Z,7.08
2018-01-25T23:39:52.112Z,7.07
2018-01-25T23:42:19.872Z,7.06
2018-01-25T23:44:47.641Z,7.06
2018-01-25T23:47:15.775Z,7.06
2018-01-25T23:49:43.558Z,7.06
2018-01-25T23:52:11.438Z,7.06
2018-01-25T23:54:39.196Z,7.06
2018-01-25T23:57:06.961Z,7.05
2018-01-25T23:59:34.661Z,7.04
